Terminal Aerodrome Forecast
Issued by NWS

Home | Current Version | Previous Version | Text Only | Print | Product List | Glossary On
Versions: 1 2 3 4 5 6 7 8 9 10 11 12 13 14 15 16
000
FTUS46 KPDT 231100
TAFBDN
TAF
KBDN 231137Z 2312/2412 21005KT P6SM BKN100
     FM231900 28014G22KT 5SM -TSRA BKN050CB BKN090
     FM240000 26018G26KT P6SM VCTS BKN050CB BKN090
     FM240300 31018G25KT P6SM VCSH SCT050 BKN090
     FM240600 24007KT P6SM SCT050 SCT090=

USA.gov is the U.S. government's official web portal to all federal, state and local government web resources and services.